KIAD/IAD METAR and TAF weather

Enter ICAO airport designator
Station Type Date Time Source
KIAD METAR 2019/06/19 02:52 UTC NOAA

KIAD 190252Z 16003KT 10SM -RA FEW030 BKN090 BKN120 OVC150 22/21 A2990 RMK AO2 RAB52 SLP123 LTG DSNT NE P0000 60000 T02220206 56002 $


Station Type Date Time Source
KIAD Decoded METAR 2019/06/19 02:52 UTC NOAA

DULLES INTERNATIONAL AIRPORT, VA, United States (KIAD) 38-56N 077-27W 93M
Jun 18, 2019 - 10:52 PM EDT / 2019.06.19 0252 UTC
Wind: from the SSE (160 degrees) at 3 MPH (3 KT):0
Visibility: 10 mile(s):0
Sky conditions: overcast
Weather: light rain; Lightning observed
Precipitation last hour: A trace
Temperature: 72.0 F (22.2 C)
Dew Point: 69.1 F (20.6 C)
Relative Humidity: 90%
Pressure (altimeter): 29.9 in. Hg (1012 hPa)
Pressure tendency: 0.01 inches (0.2 hPa) lower than three hours ago
ob: KIAD 190252Z 16003KT 10SM -RA FEW030 BKN090 BKN120 OVC150 22/21 A2990 RMK AO2 RAB52 SLP123 LTG DSNT NE P0000 60000 T02220206 56002
cycle: 3

Station Type Date Time Source
KIAD TAF 2019/06/18 21:54 UTC NOAA

TAF
AMD KIAD 182052Z 1821/1924 28012G18KT 5SM -SHRA VCTS SCT025CB OVC040
FM190100 19004KT 6SM -SHRA SCT020 OVC035
FM190900 19004KT 5SM -SHRA OVC020
FM191400 21004KT 6SM BR SCT020 OVC040
FM191600 20004KT P6SM SCT025 OVC040
FM192100 20006KT 6SM -SHRA VCTS SCT025CB OVC030

Example: see airport list